Flight Track Log - Related Links

Times and Time Zones

All times are in EDT time to prevent confusion due to time zone crossing. See the CNK66 flight status page for this flight to view local times or setup timezone preferences in your user account.


Time Position Orientation Groundspeed Altitude Reporting Facility
EDT Latitude Longitude Course Direction KTS MPH feet Rate Location/Type
Mon 07:56:48 PM 52.1500 -114.0167 338° Northwest 180 207 5,200  Level Edmonton Center
Mon 07:57:48 PM 52.2000 -114.0500 338° Northwest 170 196 5,100 -50 Descending Edmonton Center
Mon 07:58:48 PM 52.1833 -114.1333 252° West 160 184 5,100  Level Edmonton Center
Mon 07:59:48 PM 52.1833 -114.1833 270° West 160 184 5,100  Level Edmonton Center
Mon 08:00:48 PM 52.2333 -114.2167 338° Northwest 180 207 5,100  Level Edmonton Center
Mon 08:01:48 PM 52.2667 -114.2667 317° Northwest 170 196 5,100  Level Edmonton Center
Mon 08:02:48 PM 52.3167 -114.3000 338° Northwest 170 196 5,100  Level Edmonton Center
Mon 08:03:48 PM 52.3167 -114.2667 90° East 140 161 5,100  Level Edmonton Center
Mon 08:04:48 PM 52.3333 -114.1833 72° East 150 173 5,100  Level Edmonton Center
Mon 08:05:48 PM 52.3333 -114.1333 90° East 140 161 5,100  Level Edmonton Center
Mon 08:06:48 PM 52.3167 -114.0833 119° Southeast 140 161 5,100 -250 Level Edmonton Center
Mon 08:07:48 PM 52.3333 -114.0000 72° East 150 173 4,600 -200 Descending Edmonton Center
Mon 08:08:48 PM 52.3333 -113.9333 90° East 160 184 4,700 -50 Climbing Edmonton Center
Mon 08:09:48 PM 52.3000 -113.9000 149° Southeast 130 150 4,500 -200 Descending Edmonton Center
Mon 08:11:00 PM 52.2453 -113.9057 184° South  Level Estimated
Mon 08:18:00 PM 51.9259 -113.9386 184° South  Level Estimated
Mon 08:19:00 PM 51.8803 -113.9433 184° South  Level Estimated
Mon 08:20:00 PM 51.8346 -113.9480 184° South  Level Estimated
Mon 08:21:00 PM 51.7890 -113.9526 184° South  Level Estimated
Mon 08:22:00 PM 51.7434 -113.9572 184° South  Level Estimated
Mon 08:23:00 PM 51.6978 -113.9619 184° South  Level Estimated
Mon 08:24:00 PM 51.6522 -113.9665 184° South  Level Estimated
Mon 08:25:00 PM 51.6065 -113.9711 184° South  Level Estimated
Mon 08:26:00 PM 51.5609 -113.9757 184° South  Level Estimated
Mon 08:27:00 PM 51.5153 -113.9803 184° South  Level Estimated
Mon 08:28:00 PM 51.4697 -113.9849 184° South  Level Estimated
Mon 08:29:00 PM 51.4241 -113.9894 184° South  Level Estimated
Mon 08:30:00 PM 51.3784 -113.9940 184° South  Level Estimated
Mon 08:31:00 PM 51.3328 -113.9986 184° South  Level Estimated
Mon 08:32:00 PM 51.2872 -114.0031 184° South  Level Estimated
Mon 08:33:00 PM 51.2416 -114.0076 184° South  Level Estimated
Mon 08:34:00 PM 51.1959 -114.0122 184° South  Level Estimated
Mon 08:35:00 PM 51.1503 -114.0167 184° South  Level Estimated
Mon 08:36:00 PM 51.1139 -114.0203 184° South  Level Estimated
Mon 08:37:00 PM 51.1139 -114.0203 148° Southeast  Level Estimated
Mon 08:38:00 PM 51.1139 -114.0203 148° Southeast  Level Estimated
Mon 08:39:00 PM 51.1139 -114.0203 148° Southeast  Level Estimated

Login

Don't have an account? Register now (free) for customized features, flight alerts, and more!